Time;durP1;ratioP1;P1;durP2;ratioP2;P2;SDS_P1;SDS_P2;PMS_P1;PMS_P2;Temp;Humidity;BMP_temperature;BMP_pressure;BME280_temperature;BME280_humidity;BME280_pressure;Samples;Min_cycle;Max_cycle;Signal;HPM_P1;HPM_P2
2024/04/14 00:01:17;;;;;;;3.40;0.90;;;;;;;;;;5292594;26;95946;-51
2024/04/14 00:03:42;;;;;;;4.75;1.00;;;;;;;;;;5285923;26;96074;-59
2024/04/14 00:06:07;;;;;;;2.88;0.77;;;;;;;;;;5237847;26;97349;-59
2024/04/14 00:08:35;;;;;;;1.35;0.90;;;;;;;;;;5287240;26;95892;-51
2024/04/14 00:11:00;;;;;;;1.33;0.80;;;;;;;;;;5274597;26;95805;-51
2024/04/14 00:13:26;;;;;;;3.60;0.70;;;;;;;;;;5284162;26;96386;-51
2024/04/14 00:16:01;;;;;;;2.20;1.10;;;;;;;;;;5253414;26;97159;-51
2024/04/14 00:18:27;;;;;;;2.65;1.00;;;;;;;;;;5276709;26;96136;-60
2024/04/14 00:20:52;;;;;;;1.15;0.90;;;;;;;;;;5277657;26;95851;-60
2024/04/14 00:23:17;;;;;;;2.55;1.00;;;;;;;;;;5284128;26;96110;-51
2024/04/14 00:25:42;;;;;;;2.38;0.80;;;;;;;;;;5286006;26;101088;-51
2024/04/14 00:28:08;;;;;;;1.42;0.57;;;;;;;;;;5283743;26;96416;-51
2024/04/14 00:30:33;;;;;;;1.73;0.80;;;;;;;;;;5271451;26;96293;-51
2024/04/14 00:32:58;;;;;;;4.22;0.82;;;;;;;;;;5285977;26;96047;-51
2024/04/14 00:35:25;;;;;;;2.63;0.70;;;;;;;;;;5281392;26;95926;-51
2024/04/14 00:37:50;;;;;;;3.88;1.05;;;;;;;;;;5274197;26;96092;-51
2024/04/14 00:40:16;;;;;;;2.60;0.82;;;;;;;;;;5280962;26;95959;-51
2024/04/14 00:42:41;;;;;;;2.03;0.63;;;;;;;;;;5269927;26;96170;-51
2024/04/14 00:45:07;;;;;;;1.88;0.70;;;;;;;;;;5283703;26;96022;-51
2024/04/14 00:47:32;;;;;;;3.78;0.82;;;;;;;;;;5267494;26;95696;-51
2024/04/14 00:49:58;;;;;;;1.77;0.57;;;;;;;;;;5285829;26;96078;-51
2024/04/14 00:52:23;;;;;;;2.33;0.57;;;;;;;;;;5267457;26;96068;-51
2024/04/14 00:54:49;;;;;;;1.02;0.50;;;;;;;;;;5286510;26;95633;-51
2024/04/14 00:57:14;;;;;;;2.33;0.50;;;;;;;;;;5284726;26;97308;-51
2024/04/14 00:59:40;;;;;;;5.15;0.65;;;;;;;;;;5276348;26;95792;-59
2024/04/14 01:02:06;;;;;;;2.30;0.50;;;;;;;;;;5276839;26;96021;-60
2024/04/14 01:04:32;;;;;;;2.65;0.85;;;;;;;;;;5298291;26;96236;-51
2024/04/14 01:06:58;;;;;;;2.33;0.50;;;;;;;;;;5276467;26;95583;-51
2024/04/14 01:09:24;;;;;;;1.92;0.40;;;;;;;;;;5282484;26;96537;-51
2024/04/14 01:11:49;;;;;;;2.42;0.68;;;;;;;;;;5286642;26;96002;-51
2024/04/14 01:14:16;;;;;;;1.60;0.40;;;;;;;;;;5285391;26;95667;-51
2024/04/14 01:16:42;;;;;;;6.47;0.60;;;;;;;;;;5304940;26;97386;-51
2024/04/14 01:19:07;;;;;;;5.80;0.45;;;;;;;;;;5284440;26;96590;-51
2024/04/14 01:21:33;;;;;;;1.20;0.40;;;;;;;;;;5279827;26;97376;-51
2024/04/14 01:23:58;;;;;;;1.48;0.30;;;;;;;;;;5277419;26;96201;-51
2024/04/14 01:26:24;;;;;;;1.95;0.40;;;;;;;;;;5280912;26;96434;-51
2024/04/14 01:28:49;;;;;;;1.45;0.30;;;;;;;;;;5286100;26;96006;-53
2024/04/14 01:31:15;;;;;;;1.80;0.40;;;;;;;;;;5287266;26;97466;-53
2024/04/14 01:33:40;;;;;;;5.07;0.40;;;;;;;;;;5285089;26;95740;-53
2024/04/14 01:36:06;;;;;;;2.42;0.43;;;;;;;;;;5285633;26;97088;-53
2024/04/14 01:38:31;;;;;;;0.85;0.28;;;;;;;;;;5280893;26;96031;-53
2024/04/14 01:40:56;;;;;;;2.05;0.60;;;;;;;;;;5279843;26;95864;-53
2024/04/14 01:43:22;;;;;;;1.25;0.35;;;;;;;;;;5276276;26;96719;-61
2024/04/14 01:45:47;;;;;;;2.22;0.73;;;;;;;;;;5286466;26;95820;-61
2024/04/14 01:48:13;;;;;;;2.05;0.70;;;;;;;;;;5285696;26;97087;-53
2024/04/14 01:50:38;;;;;;;2.60;0.63;;;;;;;;;;5265292;26;96197;-53
2024/04/14 01:53:04;;;;;;;5.20;0.73;;;;;;;;;;5287925;26;96380;-53
2024/04/14 01:55:29;;;;;;;2.10;0.60;;;;;;;;;;5283952;26;96484;-53
2024/04/14 01:57:55;;;;;;;2.67;0.73;;;;;;;;;;5278248;26;96179;-51
2024/04/14 02:00:20;;;;;;;1.92;0.50;;;;;;;;;;5281407;26;96115;-52
2024/04/14 02:02:45;;;;;;;2.63;0.60;;;;;;;;;;5286863;26;98674;-52
2024/04/14 02:05:11;;;;;;;4.15;0.60;;;;;;;;;;5287472;26;95942;-52
2024/04/14 02:07:36;;;;;;;1.98;0.50;;;;;;;;;;5283277;26;96068;-52
2024/04/14 02:10:04;;;;;;;2.10;0.70;;;;;;;;;;5278525;26;97318;-52
2024/04/14 02:12:29;;;;;;;2.53;0.60;;;;;;;;;;5292574;26;95831;-52
2024/04/14 02:14:55;;;;;;;2.22;0.68;;;;;;;;;;5297717;26;96213;-52
2024/04/14 02:17:20;;;;;;;2.00;0.70;;;;;;;;;;5288584;26;95937;-52
2024/04/14 02:19:45;;;;;;;2.10;0.70;;;;;;;;;;5266540;26;95937;-52
2024/04/14 02:22:11;;;;;;;2.65;0.60;;;;;;;;;;5290669;26;95937;-52
2024/04/14 02:24:36;;;;;;;3.20;0.70;;;;;;;;;;5285322;26;95707;-52
2024/04/14 02:27:01;;;;;;;2.53;0.43;;;;;;;;;;5278403;26;96010;-51
2024/04/14 02:29:27;;;;;;;1.30;0.70;;;;;;;;;;5290353;26;96218;-51
2024/04/14 02:31:52;;;;;;;4.07;0.93;;;;;;;;;;5280185;26;95786;-51
2024/04/14 02:34:18;;;;;;;4.45;0.77;;;;;;;;;;5296330;26;95988;-51
2024/04/14 02:36:43;;;;;;;3.25;0.68;;;;;;;;;;5284360;26;96424;-51
2024/04/14 02:39:08;;;;;;;1.73;0.52;;;;;;;;;;5302253;26;95875;-51
2024/04/14 02:41:35;;;;;;;2.38;0.50;;;;;;;;;;5288520;26;96470;-51
2024/04/14 02:44:02;;;;;;;2.53;1.10;;;;;;;;;;5281464;26;96085;-51
2024/04/14 02:46:27;;;;;;;4.30;0.60;;;;;;;;;;5281944;26;96126;-52
2024/04/14 02:48:52;;;;;;;2.22;0.63;;;;;;;;;;5301092;26;96003;-51
2024/04/14 02:51:18;;;;;;;2.65;0.80;;;;;;;;;;5278051;26;96551;-51
2024/04/14 02:53:43;;;;;;;2.38;0.88;;;;;;;;;;5281852;26;96378;-51
2024/04/14 02:56:09;;;;;;;3.60;0.70;;;;;;;;;;5276528;26;96572;-52
2024/04/14 02:58:34;;;;;;;3.20;0.65;;;;;;;;;;5277524;26;95891;-52
2024/04/14 03:01:01;;;;;;;4.60;0.55;;;;;;;;;;5286365;26;101230;-51
2024/04/14 03:03:26;;;;;;;3.67;0.98;;;;;;;;;;5285763;26;96063;-51
2024/04/14 03:06:04;;;;;;;2.40;0.80;;;;;;;;;;5287038;26;95585;-52
2024/04/14 03:08:30;;;;;;;4.03;1.20;;;;;;;;;;5277092;26;96051;-52
2024/04/14 03:10:56;;;;;;;5.68;1.33;;;;;;;;;;5277959;26;95405;-52
2024/04/14 03:13:22;;;;;;;4.97;1.00;;;;;;;;;;5283872;26;96018;-51
2024/04/14 03:15:48;;;;;;;3.85;1.10;;;;;;;;;;5290010;26;95763;-53
2024/04/14 03:18:13;;;;;;;3.78;0.95;;;;;;;;;;5254812;26;95753;-53
2024/04/14 03:20:38;;;;;;;4.50;1.25;;;;;;;;;;5287990;26;97223;-52
2024/04/14 03:23:04;;;;;;;3.80;1.17;;;;;;;;;;5286345;26;95878;-52
2024/04/14 03:25:29;;;;;;;2.67;1.10;;;;;;;;;;5279427;26;95803;-52
2024/04/14 03:27:54;;;;;;;5.53;1.45;;;;;;;;;;5297951;26;96026;-62
2024/04/14 03:30:20;;;;;;;5.47;1.40;;;;;;;;;;5282189;26;96164;-62
2024/04/14 03:32:45;;;;;;;2.70;1.50;;;;;;;;;;5278006;26;96092;-52
2024/04/14 03:35:10;;;;;;;18.13;3.05;;;;;;;;;;5247779;26;98884;-52
2024/04/14 03:37:36;;;;;;;6.90;2.08;;;;;;;;;;5288112;26;95692;-52
2024/04/14 03:40:03;;;;;;;4.88;2.22;;;;;;;;;;5277648;26;96024;-52
2024/04/14 03:42:28;;;;;;;4.43;2.60;;;;;;;;;;5283812;26;96600;-52
2024/04/14 03:44:53;;;;;;;6.85;2.88;;;;;;;;;;5286114;26;96674;-52
2024/04/14 03:47:19;;;;;;;6.70;3.40;;;;;;;;;;5284679;26;95921;-51
2024/04/14 03:49:44;;;;;;;8.63;3.55;;;;;;;;;;5280038;26;95953;-52
2024/04/14 03:52:09;;;;;;;9.52;5.78;;;;;;;;;;5277607;26;96944;-52
2024/04/14 03:54:35;;;;;;;12.88;5.70;;;;;;;;;;5298786;26;96047;-52
2024/04/14 03:57:01;;;;;;;13.02;6.03;;;;;;;;;;5255257;26;95963;-51
2024/04/14 03:59:27;;;;;;;11.30;5.90;;;;;;;;;;5282591;26;96138;-52
2024/04/14 04:01:52;;;;;;;17.80;6.72;;;;;;;;;;5287565;26;96024;-52
2024/04/14 04:04:17;;;;;;;10.60;6.03;;;;;;;;;;5287236;26;95538;-52
2024/04/14 04:06:43;;;;;;;14.20;7.00;;;;;;;;;;5288178;26;95937;-52
2024/04/14 04:09:08;;;;;;;13.48;6.72;;;;;;;;;;5290219;26;95483;-62
2024/04/14 04:11:34;;;;;;;12.10;7.18;;;;;;;;;;5281601;26;96059;-61
2024/04/14 04:14:00;;;;;;;15.60;7.47;;;;;;;;;;5276351;26;96134;-52
2024/04/14 04:16:25;;;;;;;11.40;6.13;;;;;;;;;;5281764;26;95628;-53
2024/04/14 04:18:50;;;;;;;10.10;6.97;;;;;;;;;;5286617;26;100310;-52
2024/04/14 04:21:15;;;;;;;14.07;8.00;;;;;;;;;;5267074;26;98062;-52
2024/04/14 04:23:41;;;;;;;16.55;9.45;;;;;;;;;;5298573;26;97121;-62
2024/04/14 04:26:06;;;;;;;15.57;7.63;;;;;;;;;;5277100;26;95887;-62
2024/04/14 04:28:32;;;;;;;14.70;7.68;;;;;;;;;;5293919;26;96034;-52
2024/04/14 04:31:09;;;;;;;12.48;6.53;;;;;;;;;;5280520;26;96055;-52
2024/04/14 04:33:34;;;;;;;11.73;7.93;;;;;;;;;;5246205;26;96395;-52
2024/04/14 04:35:59;;;;;;;17.67;8.77;;;;;;;;;;5284790;26;95698;-52
2024/04/14 04:38:26;;;;;;;15.10;7.30;;;;;;;;;;5294351;26;96097;-52
2024/04/14 04:40:52;;;;;;;15.18;7.20;;;;;;;;;;5282339;26;96155;-52
2024/04/14 04:43:19;;;;;;;11.93;7.90;;;;;;;;;;5282457;26;95801;-52
2024/04/14 04:45:44;;;;;;;15.50;7.80;;;;;;;;;;5292401;26;96725;-52
2024/04/14 04:48:10;;;;;;;14.25;7.53;;;;;;;;;;5277132;26;96064;-52
2024/04/14 04:50:35;;;;;;;14.05;7.25;;;;;;;;;;5276813;26;96172;-53
2024/04/14 04:53:02;;;;;;;11.38;7.18;;;;;;;;;;5285288;26;98102;-52
2024/04/14 04:55:27;;;;;;;14.45;7.57;;;;;;;;;;5286255;26;97280;-52
2024/04/14 04:57:52;;;;;;;14.15;8.48;;;;;;;;;;5284901;26;96149;-58
2024/04/14 05:00:18;;;;;;;13.05;7.80;;;;;;;;;;5275795;26;96140;-58
2024/04/14 05:02:43;;;;;;;10.48;7.25;;;;;;;;;;5289158;26;96069;-58
2024/04/14 05:05:08;;;;;;;14.23;7.35;;;;;;;;;;5248717;26;97273;-59
2024/04/14 05:07:34;;;;;;;11.90;7.18;;;;;;;;;;5276164;26;97458;-53
2024/04/14 05:09:59;;;;;;;11.52;7.28;;;;;;;;;;5279776;26;95852;-52
2024/04/14 05:12:24;;;;;;;11.43;6.70;;;;;;;;;;5286126;26;96005;-52
2024/04/14 05:14:50;;;;;;;11.95;7.25;;;;;;;;;;5287908;26;96276;-52
2024/04/14 05:17:15;;;;;;;12.93;7.05;;;;;;;;;;5265804;26;96156;-52
2024/04/14 05:19:41;;;;;;;11.90;7.45;;;;;;;;;;5273286;26;96889;-58
2024/04/14 05:22:06;;;;;;;12.13;7.95;;;;;;;;;;5282446;26;95571;-58
2024/04/14 05:24:31;;;;;;;13.00;7.70;;;;;;;;;;5291036;26;96083;-52
2024/04/14 05:26:57;;;;;;;15.15;9.23;;;;;;;;;;5283479;26;96056;-52
2024/04/14 05:29:23;;;;;;;13.18;8.27;;;;;;;;;;5276626;26;96190;-52
2024/04/14 05:31:49;;;;;;;10.82;7.90;;;;;;;;;;5247502;26;97202;-52
2024/04/14 05:34:14;;;;;;;11.63;8.00;;;;;;;;;;5283344;26;96013;-52
2024/04/14 05:36:40;;;;;;;12.23;8.63;;;;;;;;;;5294145;26;95999;-52
2024/04/14 05:39:05;;;;;;;19.02;8.88;;;;;;;;;;5273083;26;96099;-52
2024/04/14 05:41:31;;;;;;;15.30;8.60;;;;;;;;;;5295135;26;95911;-52
2024/04/14 05:43:57;;;;;;;17.40;8.63;;;;;;;;;;5296202;26;96156;-58
2024/04/14 05:46:22;;;;;;;14.98;8.93;;;;;;;;;;5276661;26;96068;-59
2024/04/14 05:48:47;;;;;;;13.43;8.50;;;;;;;;;;5275936;26;95857;-52
2024/04/14 05:51:13;;;;;;;16.65;8.82;;;;;;;;;;5281844;26;95993;-52
2024/04/14 05:53:39;;;;;;;15.10;9.20;;;;;;;;;;5283572;26;96056;-52
2024/04/14 05:56:04;;;;;;;13.88;8.45;;;;;;;;;;5287215;26;95656;-52
2024/04/14 05:58:30;;;;;;;13.82;8.70;;;;;;;;;;5274409;26;96898;-52
2024/04/14 06:00:55;;;;;;;14.70;8.60;;;;;;;;;;5295446;26;95732;-52
2024/04/14 06:03:20;;;;;;;17.65;9.88;;;;;;;;;;5277998;26;96042;-52
2024/04/14 06:05:49;;;;;;;15.43;8.90;;;;;;;;;;5275242;26;100443;-52
2024/04/14 06:08:14;;;;;;;14.35;8.82;;;;;;;;;;5296282;26;95675;-59
2024/04/14 06:10:40;;;;;;;14.65;7.97;;;;;;;;;;5271386;26;101484;-58
2024/04/14 06:13:05;;;;;;;13.68;8.55;;;;;;;;;;5254054;26;96024;-58
2024/04/14 06:15:30;;;;;;;11.23;7.55;;;;;;;;;;5275899;26;95908;-58
2024/04/14 06:17:56;;;;;;;13.80;8.07;;;;;;;;;;5278061;26;96233;-52
2024/04/14 06:20:21;;;;;;;13.80;8.77;;;;;;;;;;5270482;26;95909;-52
2024/04/14 06:22:46;;;;;;;15.15;8.20;;;;;;;;;;5284582;26;95982;-58
2024/04/14 06:25:11;;;;;;;16.30;9.25;;;;;;;;;;5282710;26;96139;-58
2024/04/14 06:27:37;;;;;;;15.45;9.27;;;;;;;;;;5267302;26;96095;-53
2024/04/14 06:30:03;;;;;;;15.35;10.05;;;;;;;;;;5283582;26;95994;-52
2024/04/14 06:32:28;;;;;;;16.17;9.52;;;;;;;;;;5277644;26;96063;-52
2024/04/14 06:34:53;;;;;;;14.80;9.73;;;;;;;;;;5274652;26;96187;-53
2024/04/14 06:37:19;;;;;;;13.35;9.30;;;;;;;;;;5249700;26;98702;-52
2024/04/14 06:39:44;;;;;;;12.95;8.55;;;;;;;;;;5292500;26;95981;-52
2024/04/14 06:42:09;;;;;;;16.13;8.90;;;;;;;;;;5288409;26;96069;-52
2024/04/14 06:44:35;;;;;;;18.58;9.80;;;;;;;;;;5279924;26;96690;-52
2024/04/14 06:47:00;;;;;;;18.30;9.15;;;;;;;;;;5296388;26;95796;-52
2024/04/14 06:49:25;;;;;;;14.18;8.52;;;;;;;;;;5283226;26;95976;-52
2024/04/14 06:51:51;;;;;;;11.25;7.82;;;;;;;;;;5278638;26;97198;-52
2024/04/14 06:54:16;;;;;;;13.45;8.80;;;;;;;;;;5301002;26;95759;-52
2024/04/14 06:56:41;;;;;;;17.60;8.77;;;;;;;;;;5279408;26;97264;-52
2024/04/14 06:59:07;;;;;;;17.02;8.40;;;;;;;;;;5276917;26;96095;-52
2024/04/14 07:01:32;;;;;;;15.25;8.43;;;;;;;;;;5285030;26;95885;-52
2024/04/14 07:03:58;;;;;;;13.13;8.68;;;;;;;;;;5277992;26;99921;-52
2024/04/14 07:06:23;;;;;;;12.50;7.65;;;;;;;;;;5300158;26;95620;-52
2024/04/14 07:08:48;;;;;;;14.63;7.35;;;;;;;;;;5277676;26;97219;-52
2024/04/14 07:11:14;;;;;;;12.25;6.32;;;;;;;;;;5277597;26;96476;-52
2024/04/14 07:13:39;;;;;;;14.18;6.88;;;;;;;;;;5286376;26;95811;-52
2024/04/14 07:16:05;;;;;;;6.80;5.18;;;;;;;;;;5290359;26;96202;-52
2024/04/14 07:18:30;;;;;;;10.07;5.55;;;;;;;;;;5296567;26;96046;-52
2024/04/14 07:20:56;;;;;;;9.57;5.22;;;;;;;;;;5278215;26;96018;-52
2024/04/14 07:23:21;;;;;;;10.70;4.78;;;;;;;;;;5301760;26;96007;-58
2024/04/14 07:25:46;;;;;;;9.70;5.05;;;;;;;;;;5278077;26;95730;-59
2024/04/14 07:28:12;;;;;;;8.32;4.95;;;;;;;;;;5247559;26;96184;-52
2024/04/14 07:30:37;;;;;;;7.88;5.07;;;;;;;;;;5284346;26;96182;-52
2024/04/14 07:33:02;;;;;;;8.85;5.72;;;;;;;;;;5256429;26;96274;-52
2024/04/14 07:35:27;;;;;;;9.35;5.53;;;;;;;;;;5281573;26;96289;-52
2024/04/14 07:37:53;;;;;;;10.05;5.03;;;;;;;;;;5243954;26;96272;-52
2024/04/14 07:40:18;;;;;;;10.27;4.90;;;;;;;;;;5278881;26;95945;-52
2024/04/14 07:42:43;;;;;;;8.90;5.90;;;;;;;;;;5278348;26;95984;-52
2024/04/14 07:45:10;;;;;;;8.25;5.28;;;;;;;;;;5279471;26;96112;-52
2024/04/14 07:47:36;;;;;;;20.85;5.18;;;;;;;;;;5253537;26;97157;-52
2024/04/14 07:50:01;;;;;;;12.05;6.07;;;;;;;;;;5284914;26;96716;-52
2024/04/14 07:52:26;;;;;;;10.07;6.07;;;;;;;;;;5277794;26;95890;-52
2024/04/14 07:54:52;;;;;;;9.75;4.57;;;;;;;;;;5278439;26;96294;-52
2024/04/14 07:57:17;;;;;;;11.88;5.35;;;;;;;;;;5277291;26;97728;-52
2024/04/14 07:59:42;;;;;;;8.77;5.10;;;;;;;;;;5254156;26;96057;-52
2024/04/14 08:02:08;;;;;;;7.90;5.10;;;;;;;;;;5286528;26;96192;-52
2024/04/14 08:04:33;;;;;;;8.20;5.28;;;;;;;;;;5297226;26;98798;-52
2024/04/14 08:06:58;;;;;;;9.55;5.15;;;;;;;;;;5278539;26;95858;-52
2024/04/14 08:09:24;;;;;;;7.72;6.80;;;;;;;;;;5213521;26;100690;-53
2024/04/14 08:11:51;;;;;;;9.73;5.75;;;;;;;;;;5268320;26;95929;-52
2024/04/14 08:14:16;;;;;;;12.90;5.32;;;;;;;;;;5256334;26;97489;-52
2024/04/14 08:16:41;;;;;;;11.07;4.75;;;;;;;;;;5282060;26;96118;-52
2024/04/14 08:19:07;;;;;;;44.67;6.68;;;;;;;;;;5272278;26;96179;-52
2024/04/14 08:21:32;;;;;;;12.98;5.57;;;;;;;;;;5285859;26;97083;-52
2024/04/14 08:23:58;;;;;;;11.60;5.07;;;;;;;;;;5277163;26;96365;-52
2024/04/14 08:26:23;;;;;;;8.13;4.78;;;;;;;;;;5290848;26;96532;-52
2024/04/14 08:28:48;;;;;;;8.95;4.28;;;;;;;;;;5278166;26;101250;-52
2024/04/14 08:31:14;;;;;;;9.98;4.43;;;;;;;;;;5277222;26;96053;-52
2024/04/14 08:33:39;;;;;;;9.98;5.38;;;;;;;;;;5299191;26;97131;-52
2024/04/14 08:36:04;;;;;;;11.93;5.97;;;;;;;;;;5276655;26;96079;-52
2024/04/14 08:38:30;;;;;;;8.25;4.57;;;;;;;;;;5307806;26;96129;-52
2024/04/14 08:40:56;;;;;;;7.57;4.65;;;;;;;;;;5277378;26;96030;-52
2024/04/14 08:43:22;;;;;;;10.27;4.93;;;;;;;;;;5293347;26;95989;-52
2024/04/14 08:45:48;;;;;;;8.23;4.95;;;;;;;;;;5280603;26;95700;-52
2024/04/14 08:48:13;;;;;;;9.20;4.47;;;;;;;;;;5279463;26;96076;-52
2024/04/14 08:50:39;;;;;;;8.60;3.85;;;;;;;;;;5280112;26;95892;-52
2024/04/14 08:53:06;;;;;;;6.88;4.60;;;;;;;;;;5286500;26;96130;-52
2024/04/14 08:55:32;;;;;;;12.15;4.68;;;;;;;;;;5285877;26;97273;-52
2024/04/14 08:57:57;;;;;;;13.13;4.82;;;;;;;;;;5278991;26;95797;-58
2024/04/14 09:00:23;;;;;;;8.82;3.95;;;;;;;;;;5277527;26;96027;-59
2024/04/14 09:02:49;;;;;;;8.85;3.42;;;;;;;;;;5282813;26;95997;-52
2024/04/14 09:05:15;;;;;;;5.63;2.75;;;;;;;;;;5277081;26;96040;-52
2024/04/14 09:07:40;;;;;;;5.55;3.30;;;;;;;;;;5277353;26;96059;-53
2024/04/14 09:10:06;;;;;;;7.78;2.75;;;;;;;;;;5288852;26;96187;-52
2024/04/14 09:12:31;;;;;;;4.60;2.08;;;;;;;;;;5286743;26;96052;-52
2024/04/14 09:14:56;;;;;;;4.22;1.85;;;;;;;;;;5279243;26;96077;-52
2024/04/14 09:17:22;;;;;;;5.07;1.90;;;;;;;;;;5273609;26;95955;-52
2024/04/14 09:19:47;;;;;;;4.18;2.25;;;;;;;;;;5284122;26;96104;-52
2024/04/14 09:22:17;;;;;;;11.98;2.15;;;;;;;;;;5286482;26;96114;-52
2024/04/14 09:24:43;;;;;;;4.72;1.65;;;;;;;;;;5285734;26;95786;-52
2024/04/14 09:27:08;;;;;;;3.15;1.75;;;;;;;;;;5279679;26;96090;-52
2024/04/14 09:29:34;;;;;;;6.40;1.67;;;;;;;;;;5275285;26;96059;-59
2024/04/14 09:32:00;;;;;;;5.45;1.60;;;;;;;;;;5283673;26;96038;-59
2024/04/14 09:34:26;;;;;;;7.60;1.88;;;;;;;;;;5286263;26;96053;-52
2024/04/14 09:36:52;;;;;;;7.10;1.85;;;;;;;;;;5286741;26;95931;-52
2024/04/14 09:39:18;;;;;;;5.00;1.90;;;;;;;;;;5288431;26;96114;-59
2024/04/14 09:41:44;;;;;;;4.50;1.25;;;;;;;;;;5286585;26;96121;-59
2024/04/14 09:44:11;;;;;;;3.75;1.17;;;;;;;;;;5282080;26;95890;-59
2024/04/14 09:46:36;;;;;;;10.55;1.88;;;;;;;;;;5246984;26;99510;-59
2024/04/14 09:49:04;;;;;;;5.78;1.15;;;;;;;;;;5298421;26;95975;-52
2024/04/14 09:51:29;;;;;;;5.20;1.23;;;;;;;;;;5278959;26;95662;-52
2024/04/14 09:53:55;;;;;;;1.77;0.70;;;;;;;;;;5280302;26;96177;-52
2024/04/14 09:56:21;;;;;;;3.97;0.88;;;;;;;;;;5297912;26;96126;-52
2024/04/14 09:58:46;;;;;;;5.28;0.95;;;;;;;;;;5284279;26;96076;-52
2024/04/14 10:01:18;;;;;;;3.47;0.80;;;;;;;;;;5277325;26;95872;-52
2024/04/14 10:03:46;;;;;;;3.63;0.60;;;;;;;;;;5297629;26;95856;-52
2024/04/14 10:06:13;;;;;;;3.83;0.60;;;;;;;;;;5275968;26;96115;-52
2024/04/14 10:08:38;;;;;;;1.98;0.40;;;;;;;;;;5294819;26;95928;-52
2024/04/14 10:11:07;;;;;;;31.38;2.22;;;;;;;;;;5275933;26;95852;-52
2024/04/14 10:13:52;;;;;;;4.35;0.50;;;;;;;;;;5280676;26;95998;-52
2024/04/14 10:16:19;;;;;;;2.85;0.35;;;;;;;;;;5267051;26;95878;-53
2024/04/14 10:18:46;;;;;;;1.77;0.20;;;;;;;;;;5292728;26;96044;-52
2024/04/14 10:21:17;;;;;;;2.72;0.40;;;;;;;;;;5299896;26;96953;-52
2024/04/14 10:23:49;;;;;;;1.20;0.40;;;;;;;;;;5205012;26;100359;-52
2024/04/14 10:26:16;;;;;;;15.68;1.10;;;;;;;;;;5288733;26;96618;-52
2024/04/14 10:28:52;;;;;;;2.35;0.30;;;;;;;;;;5284938;26;96141;-52
2024/04/14 10:31:28;;;;;;;2.00;0.43;;;;;;;;;;5279182;26;96752;-52
2024/04/14 10:34:03;;;;;;;1.25;0.30;;;;;;;;;;5282242;26;96108;-52
2024/04/14 10:36:28;;;;;;;3.60;0.30;;;;;;;;;;5290202;26;95761;-52
2024/04/14 10:38:54;;;;;;;4.45;0.40;;;;;;;;;;5295830;26;96046;-53
2024/04/14 10:41:22;;;;;;;1.80;0.20;;;;;;;;;;5286972;26;96089;-52
2024/04/14 10:43:47;;;;;;;1.17;0.28;;;;;;;;;;5280509;26;95996;-52
2024/04/14 10:46:12;;;;;;;3.03;0.40;;;;;;;;;;5287209;26;99282;-52
2024/04/14 10:48:43;;;;;;;1.83;0.30;;;;;;;;;;5285043;26;96099;-53
2024/04/14 10:51:09;;;;;;;2.72;0.30;;;;;;;;;;5287315;26;96077;-52
2024/04/14 10:53:34;;;;;;;3.60;0.30;;;;;;;;;;5287237;26;96064;-52
2024/04/14 10:56:00;;;;;;;2.25;0.40;;;;;;;;;;5281105;26;95923;-53
2024/04/14 10:58:29;;;;;;;2.88;0.40;;;;;;;;;;5296773;26;95558;-52
2024/04/14 11:00:55;;;;;;;1.92;0.20;;;;;;;;;;5279776;26;96081;-52
2024/04/14 11:03:20;;;;;;;3.67;0.40;;;;;;;;;;5288177;26;95736;-52
2024/04/14 11:05:46;;;;;;;1.38;0.20;;;;;;;;;;5290510;26;97210;-52
2024/04/14 11:08:12;;;;;;;1.15;0.47;;;;;;;;;;5300241;26;96135;-52
2024/04/14 11:10:38;;;;;;;3.70;0.52;;;;;;;;;;5279197;26;95916;-52
2024/04/14 11:13:04;;;;;;;5.00;0.40;;;;;;;;;;5282334;26;96078;-52
2024/04/14 11:15:29;;;;;;;2.60;0.20;;;;;;;;;;5275384;26;97348;-52
2024/04/14 11:17:54;;;;;;;1.20;0.22;;;;;;;;;;5278321;26;96012;-52
2024/04/14 11:20:20;;;;;;;3.58;0.82;;;;;;;;;;5289606;26;101346;-52
2024/04/14 11:22:45;;;;;;;1.98;0.35;;;;;;;;;;5287162;26;95637;-58
2024/04/14 11:25:10;;;;;;;1.55;0.20;;;;;;;;;;5281876;26;96342;-59
2024/04/14 11:27:36;;;;;;;2.78;0.52;;;;;;;;;;5277699;26;96035;-53
2024/04/14 11:30:01;;;;;;;1.13;0.20;;;;;;;;;;5285438;26;96083;-52
2024/04/14 11:32:36;;;;;;;5.13;0.30;;;;;;;;;;5270910;26;96076;-52
2024/04/14 11:35:03;;;;;;;1.85;0.17;;;;;;;;;;5276335;26;96090;-52
2024/04/14 11:37:30;;;;;;;3.50;0.40;;;;;;;;;;5282796;26;95878;-52
2024/04/14 11:39:57;;;;;;;3.10;0.20;;;;;;;;;;5281325;26;96068;-52
2024/04/14 11:42:23;;;;;;;2.72;0.30;;;;;;;;;;5300981;26;96106;-52
2024/04/14 11:44:48;;;;;;;2.08;0.20;;;;;;;;;;5277819;26;97249;-57
2024/04/14 11:47:13;;;;;;;6.28;0.30;;;;;;;;;;5285176;26;96082;-58
2024/04/14 11:49:39;;;;;;;4.80;0.25;;;;;;;;;;5284028;26;95661;-52
2024/04/14 11:52:04;;;;;;;9.52;0.85;;;;;;;;;;5277316;26;103772;-53
2024/04/14 11:54:29;;;;;;;7.93;0.47;;;;;;;;;;5297288;26;96034;-53
2024/04/14 11:56:55;;;;;;;2.92;0.22;;;;;;;;;;5278381;26;95918;-52
2024/04/14 11:59:20;;;;;;;1.45;0.20;;;;;;;;;;5276390;26;96040;-52
2024/04/14 12:01:46;;;;;;;1.55;0.52;;;;;;;;;;5285584;26;96115;-53
2024/04/14 12:04:11;;;;;;;1.17;0.10;;;;;;;;;;5289527;26;96423;-52
2024/04/14 12:06:38;;;;;;;1.55;0.13;;;;;;;;;;5281304;26;96340;-52
2024/04/14 12:09:04;;;;;;;1.00;0.20;;;;;;;;;;5273867;26;96042;-52
2024/04/14 12:11:29;;;;;;;1.80;0.10;;;;;;;;;;5278014;26;96011;-52
2024/04/14 12:13:54;;;;;;;2.30;0.20;;;;;;;;;;5285366;26;96361;-52
2024/04/14 12:16:20;;;;;;;1.50;0.13;;;;;;;;;;5286310;26;95868;-52
2024/04/14 12:18:45;;;;;;;2.20;0.17;;;;;;;;;;5280811;26;96068;-59
2024/04/14 12:21:11;;;;;;;2.58;0.30;;;;;;;;;;5278249;26;96182;-58
2024/04/14 12:23:36;;;;;;;2.20;0.20;;;;;;;;;;5272323;26;96227;-52
2024/04/14 12:26:01;;;;;;;1.63;0.10;;;;;;;;;;5267739;26;100975;-52
2024/04/14 12:28:26;;;;;;;2.17;0.10;;;;;;;;;;5313864;26;96089;-52
2024/04/14 12:30:52;;;;;;;1.58;0.30;;;;;;;;;;5274224;26;96675;-52
2024/04/14 12:33:18;;;;;;;2.83;0.10;;;;;;;;;;5286595;26;96094;-58
2024/04/14 12:35:43;;;;;;;2.65;0.20;;;;;;;;;;5282770;26;95977;-58
2024/04/14 12:38:09;;;;;;;1.52;0.10;;;;;;;;;;5270802;26;96200;-53
2024/04/14 12:40:36;;;;;;;0.30;0.10;;;;;;;;;;5286492;26;96119;-52
2024/04/14 12:43:01;;;;;;;4.60;0.20;;;;;;;;;;5287263;26;95773;-52
2024/04/14 12:45:28;;;;;;;1.65;0.40;;;;;;;;;;5270333;26;96071;-52
2024/04/14 12:47:53;;;;;;;2.05;0.13;;;;;;;;;;5282627;26;96133;-52
2024/04/14 12:50:19;;;;;;;1.75;0.20;;;;;;;;;;5285978;26;96141;-52
2024/04/14 12:52:45;;;;;;;1.45;0.10;;;;;;;;;;5286194;26;96082;-52
2024/04/14 12:55:11;;;;;;;0.98;0.15;;;;;;;;;;5276571;26;95859;-52
2024/04/14 12:57:36;;;;;;;1.35;0.13;;;;;;;;;;5276069;26;97368;-53
2024/04/14 13:00:02;;;;;;;1.05;0.10;;;;;;;;;;5283164;26;96093;-53
2024/04/14 13:02:27;;;;;;;2.47;0.38;;;;;;;;;;5286588;26;95870;-53
2024/04/14 13:04:53;;;;;;;1.27;0.10;;;;;;;;;;5282817;26;98833;-52
2024/04/14 13:07:18;;;;;;;1.20;0.10;;;;;;;;;;5279523;26;101138;-53
2024/04/14 13:09:43;;;;;;;1.70;0.10;;;;;;;;;;5276896;26;96027;-59
2024/04/14 13:12:09;;;;;;;0.82;0.10;;;;;;;;;;5285534;26;96100;-58
2024/04/14 13:14:36;;;;;;;0.80;0.10;;;;;;;;;;5285461;26;96335;-53
2024/04/14 13:17:02;;;;;;;1.63;0.15;;;;;;;;;;5281596;26;96116;-53
2024/04/14 13:19:31;;;;;;;3.00;0.20;;;;;;;;;;5284998;26;96174;-53
2024/04/14 13:21:57;;;;;;;1.55;0.10;;;;;;;;;;5285114;26;95662;-53
2024/04/14 13:24:22;;;;;;;2.13;0.20;;;;;;;;;;5285419;26;96130;-57
2024/04/14 13:26:47;;;;;;;2.67;0.30;;;;;;;;;;5285408;26;96162;-57
2024/04/14 13:29:12;;;;;;;1.10;0.10;;;;;;;;;;5277030;26;95897;-51
2024/04/14 13:31:38;;;;;;;2.22;0.25;;;;;;;;;;5286006;26;96137;-51
2024/04/14 13:34:03;;;;;;;0.88;0.10;;;;;;;;;;5279204;26;95973;-57
2024/04/14 13:36:29;;;;;;;2.05;0.20;;;;;;;;;;5285223;26;96098;-57
2024/04/14 13:38:54;;;;;;;25.33;0.63;;;;;;;;;;5304995;26;97659;-51
2024/04/14 13:41:19;;;;;;;1.35;0.13;;;;;;;;;;5253982;26;96837;-51
2024/04/14 13:43:45;;;;;;;1.23;0.22;;;;;;;;;;5285507;26;96078;-51
2024/04/14 13:46:11;;;;;;;2.15;0.10;;;;;;;;;;5280713;26;96180;-51
2024/04/14 13:48:36;;;;;;;1.38;0.17;;;;;;;;;;5276234;26;95614;-51
2024/04/14 13:51:03;;;;;;;1.77;0.20;;;;;;;;;;5281534;26;96002;-51
2024/04/14 13:53:28;;;;;;;2.08;0.35;;;;;;;;;;5297448;26;96172;-51
2024/04/14 13:55:53;;;;;;;1.02;0.47;;;;;;;;;;5295488;26;97677;-51
2024/04/14 13:58:19;;;;;;;1.95;0.10;;;;;;;;;;5279443;26;97863;-51
2024/04/14 14:00:46;;;;;;;0.52;0.13;;;;;;;;;;5271065;26;97181;-51
2024/04/14 14:03:11;;;;;;;1.20;0.10;;;;;;;;;;5284469;26;95825;-57
2024/04/14 14:05:36;;;;;;;2.78;0.17;;;;;;;;;;5274269;26;96697;-56
2024/04/14 14:08:02;;;;;;;2.17;0.30;;;;;;;;;;5275539;26;95895;-57
2024/04/14 14:10:27;;;;;;;1.05;0.10;;;;;;;;;;5283323;26;96144;-56
2024/04/14 14:12:52;;;;;;;0.47;0.10;;;;;;;;;;5287507;26;95935;-51
2024/04/14 14:15:18;;;;;;;2.15;0.20;;;;;;;;;;5253601;26;96915;-51
2024/04/14 14:17:44;;;;;;;1.65;0.10;;;;;;;;;;5276299;26;96040;-51
2024/04/14 14:20:09;;;;;;;1.88;0.13;;;;;;;;;;5295919;26;95999;-51
2024/04/14 14:22:34;;;;;;;3.70;0.60;;;;;;;;;;5276049;26;97355;-51
2024/04/14 14:25:00;;;;;;;1.02;0.10;;;;;;;;;;5275044;26;96930;-51
2024/04/14 14:27:25;;;;;;;1.55;0.20;;;;;;;;;;5281387;26;95958;-51
2024/04/14 14:29:50;;;;;;;2.58;0.20;;;;;;;;;;5253135;26;98644;-51